Time;durP1;ratioP1;P1;durP2;ratioP2;P2;SDS_P1;SDS_P2;PMS_P1;PMS_P2;Temp;Humidity;BMP_temperature;BMP_pressure;BME280_temperature;BME280_humidity;BME280_pressure;Samples;Min_cycle;Max_cycle;Signal;HPM_P1;HPM_P2
2023/01/12 00:00:55;;;;;;;7.07;5.17;;;;;;;-3.89;95.30;101325.31;5034986;28;20059;-68
2023/01/12 00:03:20;;;;;;;9.17;5.97;;;;;;;-3.95;94.57;101330.75;5033960;28;20036;-70
2023/01/12 00:05:46;;;;;;;8.20;6.07;;;;;;;-4.00;95.02;101331.84;5034935;28;20056;-72
2023/01/12 00:08:11;;;;;;;6.77;5.43;;;;;;;-3.98;95.20;101327.44;5034862;28;20140;-68
2023/01/12 00:10:37;;;;;;;9.30;5.40;;;;;;;-3.90;94.86;101318.41;5035292;28;20029;-69
2023/01/12 00:13:02;;;;;;;8.07;4.87;;;;;;;-3.94;94.93;101326.41;5034339;28;20036;-69
2023/01/12 00:16:33;;;;;;;9.23;6.13;;;;;;;-3.99;94.51;101317.91;5034703;28;20045;-68
2023/01/12 00:18:19;;;;;;;7.95;5.22;;;;;;;-4.05;95.23;101318.97;5034959;28;20461;-69
2023/01/12 00:20:48;;;;;;;8.17;5.43;;;;;;;-4.00;95.30;101326.63;5017039;28;20124;-69
2023/01/12 00:23:14;;;;;;;7.53;5.47;;;;;;;-4.06;94.91;101318.13;5035779;28;20079;-69
2023/01/12 00:25:39;;;;;;;11.63;5.70;;;;;;;-4.04;95.24;101325.06;5042699;28;20041;-68
2023/01/12 00:28:04;;;;;;;7.47;5.30;;;;;;;-4.13;95.62;101316.66;5043240;28;20420;-68
2023/01/12 00:30:30;;;;;;;7.47;5.37;;;;;;;-4.09;94.99;101328.66;5041591;28;20519;-68
2023/01/12 00:32:56;;;;;;;7.10;5.33;;;;;;;-4.03;94.87;101317.19;5040586;28;20033;-69
2023/01/12 00:35:22;;;;;;;6.53;5.10;;;;;;;-3.96;95.73;101320.41;5034344;28;20083;-69
2023/01/12 00:37:48;;;;;;;9.10;5.70;;;;;;;-3.99;94.27;101312.72;5034825;28;20056;-69
2023/01/12 00:40:13;;;;;;;6.67;4.97;;;;;;;-3.92;94.50;101319.38;5033880;28;20115;-69
2023/01/12 00:45:24;;;;;;;7.38;4.97;;;;;;;-3.98;94.68;101311.81;5033763;28;20098;-69
2023/01/12 00:47:52;;;;;;;8.52;5.25;;;;;;;-3.98;95.29;101319.63;5033888;28;20203;-71
2023/01/12 00:50:18;;;;;;;8.65;5.15;;;;;;;-3.94;95.30;101327.25;5033737;28;20032;-69
2023/01/12 00:52:43;;;;;;;6.37;5.73;;;;;;;-3.93;95.32;101312.50;5033659;28;20037;-68
2023/01/12 00:55:09;;;;;;;6.73;5.17;;;;;;;-3.91;94.93;101310.69;5033739;28;20036;-70
2023/01/12 00:57:34;;;;;;;7.23;5.33;;;;;;;-3.85;94.96;101315.63;5032671;28;20033;-70
2023/01/12 01:00:00;;;;;;;9.30;5.73;;;;;;;-3.84;95.42;101312.13;5033311;28;20541;-69
2023/01/12 01:02:27;;;;;;;7.40;5.30;;;;;;;-3.87;95.30;101313.09;5033425;28;20029;-68
2023/01/12 01:04:52;;;;;;;7.78;6.38;;;;;;;-3.87;95.09;101309.66;5033625;28;20374;-69
2023/01/12 01:07:20;;;;;;;6.53;5.53;;;;;;;-3.85;95.23;101294.81;5033320;28;20032;-71
2023/01/12 01:09:45;;;;;;;6.55;5.35;;;;;;;-3.88;94.44;101303.59;5033247;28;20183;-69
2023/01/12 01:12:11;;;;;;;7.17;5.40;;;;;;;-3.93;94.70;101296.88;5033023;28;20065;-69
2023/01/12 01:14:37;;;;;;;7.17;5.37;;;;;;;-3.93;95.30;101296.88;5033259;28;20457;-69
2023/01/12 01:17:04;;;;;;;7.50;5.50;;;;;;;-3.93;95.23;101304.69;5033367;28;20476;-69
2023/01/12 01:19:30;;;;;;;7.75;5.50;;;;;;;-3.94;95.24;101305.59;5032853;28;20435;-68
2023/01/12 01:21:55;;;;;;;7.67;5.70;;;;;;;-3.96;95.60;101290.03;5033432;28;20030;-70
2023/01/12 01:24:22;;;;;;;8.70;5.93;;;;;;;-3.87;95.67;101307.03;5033190;28;20068;-69
2023/01/12 01:26:49;;;;;;;9.20;6.57;;;;;;;-3.85;95.09;101293.06;5033145;28;20044;-68
2023/01/12 01:29:14;;;;;;;7.95;6.28;;;;;;;-3.88;95.91;101274.97;5033629;28;20037;-69
2023/01/12 01:31:40;;;;;;;7.97;6.30;;;;;;;-3.83;95.80;101272.19;5033323;28;20342;-70
2023/01/12 01:34:05;;;;;;;10.83;6.93;;;;;;;-3.91;95.58;101266.44;5033387;28;20079;-70
2023/01/12 01:36:31;;;;;;;7.30;6.03;;;;;;;-4.03;95.56;101285.97;5033623;28;20024;-69
2023/01/12 01:38:58;;;;;;;9.93;5.20;;;;;;;-4.08;95.54;101282.66;5015092;28;20111;-69
2023/01/12 01:41:30;;;;;;;7.20;6.00;;;;;;;-4.07;95.85;101276.56;5032682;28;20033;-69
2023/01/12 01:43:59;;;;;;;8.93;6.13;;;;;;;-4.17;96.65;101264.81;5032382;28;20461;-68
2023/01/12 01:46:25;;;;;;;;;;;;;;;-4.02;96.59;101272.06;5031693;28;20038;-69
2023/01/12 01:48:51;;;;;;;10.67;5.67;;;;;;;-3.97;96.47;101258.88;5032671;28;20004;-69
2023/01/12 01:51:16;;;;;;;10.77;5.82;;;;;;;-3.93;95.28;101260.44;5032898;28;20033;-70
2023/01/12 01:53:45;;;;;;;7.50;6.13;;;;;;;-3.94;96.06;101250.94;5031616;28;20502;-69
2023/01/12 01:56:24;;;;;;;10.77;6.72;;;;;;;-3.96;95.10;101251.00;5032139;28;20121;-70
2023/01/12 01:58:57;;;;;;;7.28;5.10;;;;;;;-3.92;95.27;101247.38;5032063;28;20489;-69
2023/01/12 02:01:22;;;;;;;11.13;6.75;;;;;;;-3.86;94.20;101251.50;5032319;28;20036;-69
2023/01/12 02:03:49;;;;;;;9.97;5.70;;;;;;;-3.88;94.77;101253.31;5032428;28;20029;-70
2023/01/12 02:06:14;;;;;;;7.78;6.05;;;;;;;-3.90;93.84;101253.38;5015252;28;20424;-68
2023/01/12 02:08:46;;;;;;;6.57;5.60;;;;;;;-3.93;94.12;101253.50;5032998;28;20021;-70
2023/01/12 02:17:26;;;;;;;7.63;5.40;;;;;;;-4.01;94.52;101252.09;5031810;28;20042;-70
2023/01/12 02:20:27;;;;;;;7.97;5.25;;;;;;;-3.98;94.74;101237.22;5032216;28;20120;-70
2023/01/12 02:23:11;;;;;;;6.22;5.30;;;;;;;-3.92;94.52;101241.31;5032112;28;20366;-70
2023/01/12 02:26:14;;;;;;;8.18;5.63;;;;;;;-3.90;94.59;101239.50;5031681;28;20080;-69
2023/01/12 02:29:01;;;;;;;7.07;5.78;;;;;;;-3.97;93.83;101238.91;5032181;28;20041;-69
2023/01/12 02:32:12;;;;;;;7.28;5.75;;;;;;;-3.99;94.72;101234.66;5032345;28;20025;-69
2023/01/12 02:34:55;;;;;;;8.57;6.50;;;;;;;-3.97;94.15;101231.09;5028109;28;20088;-71
2023/01/12 02:37:39;;;;;;;5.63;4.82;;;;;;;-4.04;94.42;101218.41;5035263;28;20105;-70
2023/01/12 02:40:10;;;;;;;7.25;5.22;;;;;;;-4.09;94.90;101222.00;5033209;28;20065;-71
2023/01/12 02:42:46;;;;;;;7.75;6.18;;;;;;;-4.19;94.96;101225.00;5032304;28;20126;-69
2023/01/12 02:45:32;;;;;;;8.48;5.80;;;;;;;-4.13;95.37;101216.97;5032123;28;20029;-70
2023/01/12 02:48:02;;;;;;;9.48;5.57;;;;;;;-4.13;94.71;101217.81;5032177;28;20036;-69
2023/01/12 02:51:15;;;;;;;9.40;5.65;;;;;;;-4.05;94.71;101220.13;5032143;28;20036;-69
2023/01/12 02:53:46;;;;;;;11.10;6.40;;;;;;;-4.07;94.32;101217.56;5026143;28;20041;-69
2023/01/12 02:56:18;;;;;;;7.43;6.28;;;;;;;-4.11;95.27;101200.41;5032233;28;20037;-70
2023/01/12 02:58:51;;;;;;;8.23;6.22;;;;;;;-4.15;95.26;101206.63;5031698;28;20388;-70
2023/01/12 03:01:19;;;;;;;9.85;6.55;;;;;;;-4.17;95.39;101213.63;5032071;28;20033;-69
2023/01/12 03:03:48;;;;;;;10.25;7.70;;;;;;;-4.12;95.50;101205.66;5031931;28;20117;-70
2023/01/12 03:06:16;;;;;;;8.45;5.97;;;;;;;-4.14;94.95;101208.31;5035648;28;20079;-69
2023/01/12 03:08:43;;;;;;;8.43;6.40;;;;;;;-4.12;95.06;101213.47;5035783;28;20159;-68
2023/01/12 03:11:15;;;;;;;8.88;6.30;;;;;;;-4.08;95.05;101200.28;5035445;28;20528;-69
2023/01/12 03:13:49;;;;;;;12.25;6.00;;;;;;;-4.17;95.23;101200.63;5035019;28;20037;-70
2023/01/12 03:16:26;;;;;;;11.02;6.57;;;;;;;-4.22;95.39;101197.38;5035328;28;20045;-69
2023/01/12 03:19:15;;;;;;;8.18;5.82;;;;;;;-4.20;96.02;101205.97;5035144;28;20036;-69
2023/01/12 03:21:50;;;;;;;10.15;5.72;;;;;;;-4.19;95.45;101197.25;5035028;28;20357;-69
2023/01/12 03:24:20;;;;;;;7.97;6.55;;;;;;;-4.23;95.02;101195.66;5035102;28;20030;-70
2023/01/12 03:26:49;;;;;;;8.82;5.93;;;;;;;-4.27;95.91;101199.31;5035436;28;20059;-71
2023/01/12 03:29:24;;;;;;;7.45;6.05;;;;;;;-4.23;95.50;101197.44;5017444;28;20052;-70
2023/01/12 03:31:50;;;;;;;9.82;6.57;;;;;;;-4.19;95.64;101192.03;5034989;28;20033;-69
2023/01/12 03:34:16;;;;;;;8.03;6.60;;;;;;;-4.17;95.50;101178.97;5035187;28;20449;-69
2023/01/12 03:36:47;;;;;;;10.37;6.73;;;;;;;-4.06;95.94;101188.06;5035544;28;20028;-72
2023/01/12 03:39:16;;;;;;;9.30;6.85;;;;;;;-4.02;95.34;101181.00;5035193;28;20083;-69
2023/01/12 03:41:58;;;;;;;7.45;6.43;;;;;;;-4.07;95.32;101181.16;5035257;28;20116;-69
2023/01/12 03:44:37;;;;;;;9.45;5.47;;;;;;;-4.21;95.09;101152.25;5034878;28;20030;-70
2023/01/12 03:47:10;;;;;;;9.40;6.80;;;;;;;-4.21;95.94;101157.44;5017199;28;20373;-69
2023/01/12 03:49:43;;;;;;;10.57;5.57;;;;;;;-4.31;95.88;101150.91;5034721;28;20171;-70
2023/01/12 03:52:11;;;;;;;7.72;5.50;;;;;;;-4.34;96.13;101140.59;5016899;28;20465;-70
2023/01/12 03:54:39;;;;;;;7.90;6.20;;;;;;;-4.32;96.15;101138.81;5035020;28;20028;-70
2023/01/12 03:57:07;;;;;;;9.65;6.28;;;;;;;-4.27;95.72;101162.88;5034545;28;20037;-70
2023/01/12 03:59:33;;;;;;;8.77;5.93;;;;;;;-4.29;96.21;101151.69;5034403;28;20028;-68
2023/01/12 04:01:59;;;;;;;6.63;5.37;;;;;;;-4.37;96.70;101145.94;5034276;28;20022;-70
2023/01/12 04:04:24;;;;;;;9.17;6.77;;;;;;;-4.31;95.94;101124.91;5034862;28;20021;-69
2023/01/12 04:06:50;;;;;;;8.17;5.60;;;;;;;-4.20;96.15;101142.69;5034539;28;20115;-69
2023/01/12 04:09:15;;;;;;;9.43;8.03;;;;;;;-4.12;95.94;101146.69;5034434;28;20057;-69
2023/01/12 04:14:25;;;;;;;11.98;5.78;;;;;;;-4.13;96.29;101150.19;5034629;28;20116;-68
2023/01/12 04:16:52;;;;;;;8.40;6.07;;;;;;;-4.18;95.83;101136.53;5032899;28;20187;-74
2023/01/12 04:19:18;;;;;;;11.73;7.78;;;;;;;-4.16;95.50;101142.50;5034367;28;20025;-71
2023/01/12 04:24:27;;;;;;;8.15;5.95;;;;;;;-4.21;95.90;101135.78;5034332;28;20056;-71
2023/01/12 04:26:53;;;;;;;10.03;7.17;;;;;;;-4.24;96.30;101126.38;5034330;28;20465;-75
2023/01/12 04:32:50;;;;;;;8.27;6.63;;;;;;;-4.32;95.87;101109.38;5017190;28;20524;-76
2023/01/12 04:35:16;;;;;;;9.65;6.85;;;;;;;-4.18;96.58;101126.13;5041578;28;20061;-72
2023/01/12 04:37:42;;;;;;;10.97;6.90;;;;;;;-4.26;96.03;101124.72;5042146;28;20058;-73
2023/01/12 04:40:10;;;;;;;9.10;7.47;;;;;;;-4.30;96.98;101107.56;5027064;28;20025;-73
2023/01/12 04:45:20;;;;;;;11.52;8.23;;;;;;;-4.31;96.90;101098.91;5038827;28;20052;-72
2023/01/12 04:47:46;;;;;;;8.80;6.37;;;;;;;-4.26;97.72;101086.56;5016862;28;20057;-73
2023/01/12 04:50:11;;;;;;;14.70;7.80;;;;;;;-4.22;97.78;101088.13;5033779;28;20078;-75
2023/01/12 04:52:37;;;;;;;11.60;7.63;;;;;;;-4.13;97.18;101090.38;5016152;28;20100;-74
2023/01/12 04:55:03;;;;;;;10.53;7.67;;;;;;;-4.11;96.80;101087.69;5033915;28;20032;-72
2023/01/12 04:57:30;;;;;;;13.57;8.80;;;;;;;-4.10;96.89;101085.03;5033579;28;20037;-72
2023/01/12 04:59:56;;;;;;;10.57;7.60;;;;;;;-4.15;96.97;101081.78;5033844;28;20029;-73
2023/01/12 05:02:22;;;;;;;10.47;7.13;;;;;;;-4.20;96.54;101073.31;5033916;28;20052;-76
2023/01/12 05:04:47;;;;;;;11.23;7.03;;;;;;;-4.18;97.06;101084.50;5033532;28;20056;-73
2023/01/12 05:07:14;;;;;;;11.77;6.93;;;;;;;-4.20;97.51;101081.13;5033395;28;20385;-72
2023/01/12 05:12:24;;;;;;;12.32;8.05;;;;;;;-4.18;97.54;101088.84;5033169;28;20044;-72
2023/01/12 05:14:49;;;;;;;11.33;7.83;;;;;;;-4.20;97.49;101086.31;5033427;28;20713;-72
2023/01/12 05:17:15;;;;;;;12.20;8.17;;;;;;;-4.15;98.00;101094.78;5033308;28;20096;-72
2023/01/12 05:19:41;;;;;;;10.67;7.17;;;;;;;-4.16;97.92;101095.69;5033397;28;20129;-73
2023/01/12 05:22:06;;;;;;;12.60;7.40;;;;;;;-4.17;97.44;101077.53;5032945;28;20425;-74
2023/01/12 05:24:32;;;;;;;13.30;7.80;;;;;;;-4.11;98.28;101085.94;5033100;28;20445;-72
2023/01/12 05:26:59;;;;;;;15.35;9.60;;;;;;;-4.08;97.28;101080.63;5033213;28;20051;-73
2023/01/12 05:29:25;;;;;;;14.07;8.30;;;;;;;-4.11;97.41;101075.53;5014545;28;20064;-74
2023/01/12 05:31:51;;;;;;;12.07;7.55;;;;;;;-4.02;97.98;101084.75;5032843;28;20060;-72
2023/01/12 05:34:18;;;;;;;14.13;8.03;;;;;;;-4.08;97.81;101070.22;5015277;28;20457;-75
2023/01/12 05:36:47;;;;;;;12.55;7.68;;;;;;;-4.07;97.46;101058.06;5019442;28;20033;-72
2023/01/12 05:39:13;;;;;;;;;;;;;;;-4.03;97.81;101061.41;5038389;28;20033;-73
2023/01/12 05:43:48;;;;;;;13.53;8.13;;;;;;;-4.15;98.08;101060.97;5039463;28;19920;-74
2023/01/12 05:44:24;;;;;;;10.65;7.72;;;;;;;-4.20;98.64;101055.13;5033376;28;20084;-75
2023/01/12 05:46:49;;;;;;;11.00;7.43;;;;;;;-4.19;99.14;101049.00;5033006;28;20029;-74
2023/01/12 05:49:15;;;;;;;12.03;8.03;;;;;;;-4.16;99.07;101041.06;5032852;28;20035;-76
2023/01/12 05:51:41;;;;;;;13.00;8.33;;;;;;;-4.14;98.64;101049.66;5034805;28;20037;-75
2023/01/12 05:54:09;;;;;;;11.77;8.50;;;;;;;-4.11;99.10;101051.28;5037288;28;20119;-70
2023/01/12 05:56:34;;;;;;;12.57;8.18;;;;;;;-4.19;98.65;101030.81;5031461;28;20040;-74
2023/01/12 05:59:03;;;;;;;15.33;8.73;;;;;;;-4.00;98.66;101040.47;5024530;28;20119;-76
2023/01/12 06:01:30;;;;;;;13.23;8.07;;;;;;;-3.96;97.72;101042.88;5018547;28;20036;-73
2023/01/12 06:03:59;;;;;;;14.10;8.57;;;;;;;-4.08;98.36;101049.41;5032478;28;20069;-74
2023/01/12 06:06:26;;;;;;;18.80;7.93;;;;;;;-4.05;98.72;101053.63;5032134;28;20079;-74
2023/01/12 06:08:53;;;;;;;17.13;8.52;;;;;;;-4.11;98.58;101066.91;5032723;28;20040;-77
2023/01/12 06:14:03;;;;;;;14.68;9.13;;;;;;;-4.12;99.21;101050.44;5032523;28;20036;-75
2023/01/12 06:16:30;;;;;;;15.87;8.87;;;;;;;-4.38;98.32;101019.44;5031930;28;20053;-75
2023/01/12 06:18:56;;;;;;;16.77;8.88;;;;;;;-4.15;99.34;101062.72;5032257;28;20034;-77
2023/01/12 06:21:22;;;;;;;14.23;7.93;;;;;;;-4.10;99.49;101051.22;5032523;28;20040;-74
2023/01/12 06:23:48;;;;;;;15.48;9.38;;;;;;;-4.15;99.45;101047.97;5032207;28;20378;-77
2023/01/12 06:26:14;;;;;;;14.27;10.00;;;;;;;-4.11;99.41;101046.94;5014767;28;20021;-78
2023/01/12 06:28:41;;;;;;;14.67;8.80;;;;;;;-4.10;99.39;101048.63;5032093;28;20036;-76
2023/01/12 06:31:09;;;;;;;14.50;9.85;;;;;;;-4.09;99.61;101047.72;5032395;28;20021;-76
2023/01/12 06:33:35;;;;;;;12.75;9.00;;;;;;;-4.14;99.86;101041.84;5032113;28;20030;-74
2023/01/12 06:36:00;;;;;;;17.37;10.50;;;;;;;-4.09;99.15;101039.06;5032672;28;20033;-75
2023/01/12 06:38:28;;;;;;;14.10;9.90;;;;;;;-4.06;100.00;101050.19;5014974;28;20044;-76
2023/01/12 06:40:56;;;;;;;19.50;12.45;;;;;;;-4.10;100.00;101053.81;5035762;28;20034;-75
2023/01/12 06:43:21;;;;;;;12.20;9.15;;;;;;;-4.12;100.00;101041.78;5036450;28;20116;-79
2023/01/12 06:45:53;;;;;;;26.67;13.32;;;;;;;-4.04;100.00;101050.16;5036621;28;20044;-76
2023/01/12 06:48:21;;;;;;;28.13;15.60;;;;;;;-3.99;100.00;101043.00;5019003;28;20033;-77
2023/01/12 06:50:47;;;;;;;41.97;18.65;;;;;;;-3.97;99.85;101040.34;5036769;28;20033;-78
2023/01/12 06:53:12;;;;;;;27.63;14.60;;;;;;;-3.95;100.00;101038.50;5036387;28;20099;-76
2023/01/12 06:55:38;;;;;;;23.07;14.07;;;;;;;-3.95;99.98;101043.72;5036715;28;20029;-75
2023/01/12 06:58:04;;;;;;;18.40;11.13;;;;;;;-3.95;100.00;101028.09;5036206;28;20508;-75
2023/01/12 07:00:30;;;;;;;17.27;9.93;;;;;;;-3.94;100.00;101033.25;5036503;28;20405;-77
2023/01/12 07:02:56;;;;;;;18.27;10.93;;;;;;;-3.94;100.00;101024.59;5036312;28;20099;-76
2023/01/12 07:05:22;;;;;;;12.23;9.20;;;;;;;-3.87;100.00;101015.59;5036457;28;20025;-75
2023/01/12 07:07:47;;;;;;;27.37;9.77;;;;;;;-3.91;100.00;101029.66;5036912;28;20022;-76
2023/01/12 07:10:13;;;;;;;12.93;9.07;;;;;;;-4.03;100.00;101019.78;5036723;28;20457;-75
2023/01/12 07:12:39;;;;;;;13.87;8.13;;;;;;;-4.07;100.00;101019.03;5036549;28;20025;-78
2023/01/12 07:15:06;;;;;;;15.70;8.60;;;;;;;-4.08;100.00;101022.53;5036532;28;20112;-77
2023/01/12 07:17:32;;;;;;;13.18;9.50;;;;;;;-4.06;100.00;101018.13;5038312;28;20041;-77
2023/01/12 07:19:58;;;;;;;11.38;8.85;;;;;;;-4.13;100.00;100999.31;5039117;28;20063;-76
2023/01/12 07:22:25;;;;;;;15.33;9.23;;;;;;;-4.02;100.00;101011.91;5039733;28;20033;-76
2023/01/12 07:24:50;;;;;;;15.50;8.52;;;;;;;-4.08;100.00;100994.78;5039859;28;20041;-75
2023/01/12 07:27:16;;;;;;;13.37;8.60;;;;;;;-4.03;100.00;101004.16;5039643;28;20032;-76
2023/01/12 07:29:41;;;;;;;12.03;8.40;;;;;;;-4.10;100.00;101000.94;5020089;28;20048;-75
2023/01/12 07:32:07;;;;;;;12.17;8.83;;;;;;;-4.00;100.00;101009.25;5038254;28;20092;-76
2023/01/12 07:34:32;;;;;;;12.07;8.77;;;;;;;-3.95;100.00;101012.50;5038354;28;20120;-77
2023/01/12 07:36:58;;;;;;;21.57;9.87;;;;;;;-3.88;100.00;101013.91;5039777;28;20378;-75
2023/01/12 07:39:23;;;;;;;13.53;8.57;;;;;;;-3.97;100.00;101004.75;5040039;28;20029;-75
2023/01/12 07:44:35;;;;;;;15.70;9.30;;;;;;;-4.12;100.00;101001.03;5021258;28;20029;-76
2023/01/12 07:47:02;;;;;;;16.63;9.18;;;;;;;-4.03;100.00;101015.41;5036543;28;20034;-76
2023/01/12 07:49:27;;;;;;;15.97;9.50;;;;;;;-3.99;100.00;101013.53;5056062;28;20036;-76
2023/01/12 07:51:54;;;;;;;17.63;10.27;;;;;;;-3.94;100.00;101014.19;5047300;28;20029;-77
2023/01/12 07:54:19;;;;;;;15.35;9.65;;;;;;;-4.09;100.00;100994.84;5035632;28;20037;-76
2023/01/12 07:56:45;;;;;;;19.33;10.53;;;;;;;-4.06;100.00;101011.16;5035904;28;20030;-76
2023/01/12 07:59:11;;;;;;;14.60;9.57;;;;;;;-4.00;100.00;101012.69;5035421;28;20029;-75
2023/01/12 08:01:36;;;;;;;26.17;11.47;;;;;;;-4.21;100.00;100978.00;5035076;28;20033;-75
2023/01/12 08:04:02;;;;;;;16.20;10.27;;;;;;;-4.11;100.00;101002.72;5034895;28;20122;-78
2023/01/12 08:06:28;;;;;;;20.60;12.85;;;;;;;-4.11;100.00;101001.88;5035394;28;20037;-77
2023/01/12 08:08:54;;;;;;;17.10;11.07;;;;;;;-4.02;100.00;101009.31;5034631;28;20031;-78
2023/01/12 08:11:20;;;;;;;16.03;10.47;;;;;;;-4.07;100.00;100996.47;5034838;28;20132;-77
2023/01/12 08:13:45;;;;;;;24.00;11.50;;;;;;;-4.07;100.00;101001.66;5035670;28;20112;-75
2023/01/12 08:16:19;;;;;;;17.33;12.00;;;;;;;-4.08;100.00;101002.56;5049634;28;20480;-77
2023/01/12 08:18:55;;;;;;;18.48;10.93;;;;;;;-4.16;100.00;100989.06;5035794;28;20069;-75
2023/01/12 08:21:26;;;;;;;20.15;13.52;;;;;;;-4.08;100.00;100988.72;5034782;28;20037;-75
2023/01/12 08:23:55;;;;;;;15.30;10.05;;;;;;;-4.04;100.00;100997.28;5034956;28;20026;-75
2023/01/12 08:26:23;;;;;;;;;;;;;;;-4.09;100.00;100995.69;5035322;28;20060;-78
2023/01/12 08:29:19;;;;;;;16.35;10.10;;;;;;;-4.17;100.00;100997.78;5035150;28;20261;-77
2023/01/12 08:31:59;;;;;;;16.42;10.38;;;;;;;-4.20;100.00;100995.28;5034016;28;20037;-77
2023/01/12 08:34:26;;;;;;;14.32;8.50;;;;;;;-4.29;100.00;100971.44;5033967;28;20029;-78
2023/01/12 08:36:53;;;;;;;14.63;10.20;;;;;;;-4.22;100.00;100984.13;5016544;28;20034;-76
2023/01/12 08:39:18;;;;;;;13.77;9.55;;;;;;;-4.19;100.00;100978.78;5034246;28;20033;-76
2023/01/12 08:41:44;;;;;;;17.83;12.03;;;;;;;-4.10;100.00;100988.78;5033941;28;20022;-75
2023/01/12 08:44:09;;;;;;;18.07;11.43;;;;;;;-4.11;100.00;100974.09;5034338;28;20037;-76
2023/01/12 08:46:52;;;;;;;17.85;10.85;;;;;;;-4.09;100.00;100990.47;5034218;28;20120;-73
2023/01/12 08:49:44;;;;;;;22.55;11.77;;;;;;;-4.04;100.00;100972.13;5021730;28;20045;-74
2023/01/12 08:52:10;;;;;;;20.08;11.38;;;;;;;-4.41;100.00;100915.56;5036618;28;20040;-77
2023/01/12 08:54:52;;;;;;;22.33;11.30;;;;;;;-3.95;100.00;100976.06;5041036;28;20045;-79
2023/01/12 08:57:18;;;;;;;22.30;10.55;;;;;;;-3.97;100.00;100983.09;5002169;28;20029;-75
2023/01/12 08:59:49;;;;;;;20.92;10.90;;;;;;;-3.95;100.00;100994.28;5019588;28;20033;-76
2023/01/12 09:02:17;;;;;;;20.23;11.15;;;;;;;-3.90;100.00;100990.56;5020148;28;20037;-75
2023/01/12 09:04:44;;;;;;;17.45;10.85;;;;;;;-3.95;100.00;100984.72;5002000;28;20021;-76
2023/01/12 09:07:11;;;;;;;16.48;10.02;;;;;;;-4.07;100.00;100967.84;5016094;28;20469;-75
2023/01/12 09:09:37;;;;;;;14.88;9.93;;;;;;;-3.95;100.00;100978.66;5033674;28;20030;-76
2023/01/12 09:12:03;;;;;;;16.33;11.23;;;;;;;-3.98;100.00;100965.78;5033698;28;20029;-77
2023/01/12 09:14:29;;;;;;;18.55;9.93;;;;;;;-4.00;100.00;100978.88;5016280;28;20034;-76
2023/01/12 09:16:58;;;;;;;15.83;10.20;;;;;;;-4.00;100.00;100972.81;5033411;28;20188;-74
2023/01/12 09:19:27;;;;;;;17.00;10.68;;;;;;;-3.91;100.00;100977.63;5033665;28;20612;-76
2023/01/12 09:21:52;;;;;;;21.90;14.20;;;;;;;-3.91;100.00;100967.22;5033918;28;20029;-77
2023/01/12 09:24:18;;;;;;;18.27;10.90;;;;;;;-3.89;100.00;100961.03;5015712;28;20049;-77
2023/01/12 09:26:45;;;;;;;22.17;12.23;;;;;;;-3.82;100.00;100961.59;5033597;28;20064;-77
2023/01/12 09:29:12;;;;;;;15.43;11.10;;;;;;;-3.88;100.00;100962.72;5015854;28;20072;-75
2023/01/12 09:31:40;;;;;;;16.88;11.30;;;;;;;-3.99;100.00;100954.53;5015785;28;20465;-76
2023/01/12 09:34:06;;;;;;;16.25;10.57;;;;;;;-4.04;100.00;100950.44;5032889;28;20040;-74
2023/01/12 09:36:34;;;;;;;16.10;11.47;;;;;;;-4.03;100.00;100958.19;5039920;28;20025;-74
2023/01/12 09:39:02;;;;;;;20.73;11.18;;;;;;;-4.01;100.00;100963.31;5037846;28;20041;-75
2023/01/12 09:47:38;;;;;;;18.05;10.63;;;;;;;-4.13;100.00;100928.25;5033107;28;20037;-73
2023/01/12 09:50:21;;;;;;;18.00;11.35;;;;;;;-3.96;100.00;100945.75;5033053;28;20120;-76
2023/01/12 09:52:54;;;;;;;19.98;13.60;;;;;;;-4.24;100.00;100915.72;5032923;28;20040;-75
2023/01/12 09:55:23;;;;;;;21.48;12.25;;;;;;;-4.12;100.00;100933.41;5034083;28;20033;-76
2023/01/12 09:58:01;;;;;;;;;;;;;;;-3.99;100.00;100944.13;5033936;28;20037;-76
2023/01/12 10:00:27;;;;;;;20.77;12.80;;;;;;;-4.05;100.00;100936.56;5034286;28;20370;-75
2023/01/12 10:03:04;;;;;;;23.30;13.90;;;;;;;-4.13;100.00;100928.25;5034148;28;20068;-78
2023/01/12 10:05:33;;;;;;;17.73;12.75;;;;;;;-4.11;100.00;100924.69;5033222;28;20029;-76
2023/01/12 10:08:22;;;;;;;19.30;12.27;;;;;;;-4.05;100.00;100928.78;5031234;28;20026;-75
2023/01/12 10:11:05;;;;;;;17.83;11.18;;;;;;;-3.94;100.00;100926.56;5015512;28;20025;-74
2023/01/12 10:13:43;;;;;;;16.83;11.85;;;;;;;-3.90;100.00;100914.28;5033579;28;20052;-77
2023/01/12 10:16:27;;;;;;;19.70;11.55;;;;;;;-3.91;100.00;100920.38;5032917;28;20064;-74
2023/01/12 10:18:58;;;;;;;15.82;10.98;;;;;;;-4.13;100.00;100895.28;5032646;28;20033;-74
2023/01/12 10:21:25;;;;;;;16.23;10.75;;;;;;;-3.93;100.00;100911.81;5032635;28;20125;-75
2023/01/12 10:23:53;;;;;;;15.10;11.65;;;;;;;-3.92;100.00;100909.13;5032562;28;20029;-75
2023/01/12 10:26:24;;;;;;;19.25;10.57;;;;;;;-3.94;100.00;100917.91;5032348;28;20033;-75
2023/01/12 10:28:53;;;;;;;18.42;9.93;;;;;;;-3.89;100.00;100919.41;4998115;28;20021;-75
2023/01/12 10:31:22;;;;;;;15.07;9.75;;;;;;;-3.84;100.00;100921.78;5032084;28;20033;-76
2023/01/12 10:34:05;;;;;;;;;;;;;;;-3.78;100.00;100911.97;5032836;28;20031;-74
2023/01/12 10:36:42;;;;;;;15.05;10.15;;;;;;;-3.84;100.00;100887.97;5035668;28;19913;-76
2023/01/12 10:39:32;;;;;;;11.57;8.35;;;;;;;-3.85;100.00;100905.34;5032547;28;20022;-74
2023/01/12 10:45:20;;;;;;;14.27;9.63;;;;;;;-3.81;100.00;100893.03;5033513;28;20355;-76
2023/01/12 10:47:47;;;;;;;14.10;10.25;;;;;;;-3.72;100.00;100884.84;5038159;28;20438;-73
2023/01/12 10:50:28;;;;;;;20.65;11.23;;;;;;;-3.77;100.00;100891.97;5032351;28;20045;-74
2023/01/12 10:53:04;;;;;;;16.60;8.82;;;;;;;-3.86;100.00;100882.00;5055407;28;20032;-74
2023/01/12 10:55:39;;;;;;;11.20;8.77;;;;;;;-3.89;100.00;100897.75;5046013;28;20476;-74
2023/01/12 10:58:35;;;;;;;23.17;11.30;;;;;;;-3.91;100.00;100899.56;5032199;28;20523;-77
2023/01/12 11:01:05;;;;;;;14.15;9.52;;;;;;;-3.92;100.00;100896.13;5031501;28;20102;-75
2023/01/12 11:03:32;;;;;;;15.43;9.80;;;;;;;-3.85;100.00;100891.50;5031922;28;20029;-73
2023/01/12 11:06:33;;;;;;;15.63;10.23;;;;;;;-3.70;100.00;100898.63;5032361;28;20099;-76
2023/01/12 11:09:17;;;;;;;17.75;11.68;;;;;;;-3.70;100.00;100903.84;4990439;28;20434;-76
2023/01/12 11:11:42;;;;;;;15.35;11.23;;;;;;;-3.75;100.00;100895.38;5028405;28;20030;-74
2023/01/12 11:14:28;;;;;;;15.93;9.83;;;;;;;-3.68;100.00;100901.16;5013699;28;20508;-76
2023/01/12 11:17:04;;;;;;;22.27;12.90;;;;;;;-3.70;100.00;100885.63;5031371;28;20093;-75
2023/01/12 11:19:36;;;;;;;17.60;10.63;;;;;;;-3.77;100.00;100886.78;5032116;28;20036;-77
2023/01/12 11:22:08;;;;;;;15.40;10.50;;;;;;;-3.82;100.00;100889.59;5014142;28;20037;-78
2023/01/12 11:24:41;;;;;;;15.75;9.45;;;;;;;-3.87;100.00;100885.50;5014619;28;20022;-77
2023/01/12 11:27:21;;;;;;;13.38;9.80;;;;;;;-3.76;100.00;100885.88;5035462;28;20040;-77
2023/01/12 11:29:55;;;;;;;17.00;12.18;;;;;;;-3.74;100.00;100897.09;5036139;28;20018;-76
2023/01/12 11:32:46;;;;;;;17.17;11.43;;;;;;;-3.69;100.00;100891.66;5035881;28;20033;-74
2023/01/12 11:35:30;;;;;;;15.52;10.38;;;;;;;-3.75;100.00;100895.38;5035812;28;20469;-73
2023/01/12 11:38:02;;;;;;;18.00;10.80;;;;;;;-3.94;100.00;100890.16;5036083;28;20052;-75
2023/01/12 11:40:33;;;;;;;12.85;9.15;;;;;;;-3.98;100.00;100893.81;5018002;28;20033;-75
2023/01/12 11:43:51;;;;;;;19.38;10.23;;;;;;;-3.93;100.00;100896.19;5035955;28;20087;-78
2023/01/12 11:47:02;;;;;;;;;;;;;;;;;;;;;
2023/01/12 11:50:12;;;;;;;13.07;8.55;;;;;;;-3.93;100.00;100859.78;5013578;28;20056;-76
2023/01/12 11:53:06;;;;;;;22.25;11.80;;;;;;;-3.63;100.00;100886.19;5043096;28;20130;-79
2023/01/12 11:55:48;;;;;;;15.15;9.90;;;;;;;-3.55;100.00;100890.09;5035416;28;20021;-77
2023/01/12 11:58:16;;;;;;;16.95;9.50;;;;;;;-3.59;100.00;100867.75;5034039;28;20030;-80
2023/01/12 12:00:53;;;;;;;16.70;10.35;;;;;;;-3.67;100.00;100869.84;5034816;28;20754;-78
2023/01/12 12:03:37;;;;;;;21.00;10.57;;;;;;;-3.64;100.00;100861.06;5034347;28;20037;-76
2023/01/12 12:06:21;;;;;;;15.77;10.57;;;;;;;-3.59;100.00;100857.31;5035203;28;20034;-77
2023/01/12 12:20:15;;;;;;;19.88;10.90;;;;;;;-3.72;100.00;100824.97;5040034;28;20044;-76
2023/01/12 12:23:05;;;;;;;18.00;9.57;;;;;;;-3.46;100.00;100855.88;5037646;28;20120;-75